sensor_id;sensor_type;location;lat;lon;timestamp;temperature;humidity
1778;DHT22;71547;50.146;8.174;2024-02-23T00:01:27;6.90;99.90
1778;DHT22;71547;50.146;8.174;2024-02-23T00:03:54;7.00;99.90
1778;DHT22;71547;50.146;8.174;2024-02-23T00:06:24;6.90;99.90
1778;DHT22;71547;50.146;8.174;2024-02-23T00:08:54;7.00;99.90
1778;DHT22;71547;50.146;8.174;2024-02-23T00:11:39;6.90;99.90
1778;DHT22;71547;50.146;8.174;2024-02-23T00:14:08;6.90;99.90
1778;DHT22;71547;50.146;8.174;2024-02-23T00:16:38;6.80;99.90
1778;DHT22;71547;50.146;8.174;2024-02-23T00:19:07;6.80;99.90
1778;DHT22;71547;50.146;8.174;2024-02-23T00:21:38;6.80;99.90
1778;DHT22;71547;50.146;8.174;2024-02-23T00:24:07;6.70;99.90
1778;DHT22;71547;50.146;8.174;2024-02-23T00:26:34;6.50;99.90
1778;DHT22;71547;50.146;8.174;2024-02-23T00:29:02;6.40;99.90
1778;DHT22;71547;50.146;8.174;2024-02-23T00:31:30;6.30;99.90
1778;DHT22;71547;50.146;8.174;2024-02-23T00:33:57;6.20;99.90
1778;DHT22;71547;50.146;8.174;2024-02-23T00:36:25;6.00;99.90
1778;DHT22;71547;50.146;8.174;2024-02-23T00:38:54;6.00;99.90
1778;DHT22;71547;50.146;8.174;2024-02-23T00:41:21;5.90;99.90
1778;DHT22;71547;50.146;8.174;2024-02-23T00:43:49;5.90;99.90
1778;DHT22;71547;50.146;8.174;2024-02-23T00:46:16;5.90;99.90
1778;DHT22;71547;50.146;8.174;2024-02-23T00:48:43;5.90;99.90
1778;DHT22;71547;50.146;8.174;2024-02-23T00:51:11;5.80;99.90
1778;DHT22;71547;50.146;8.174;2024-02-23T00:53:38;5.70;99.90
1778;DHT22;71547;50.146;8.174;2024-02-23T00:56:07;5.60;99.90
1778;DHT22;71547;50.146;8.174;2024-02-23T00:58:34;5.60;99.90
1778;DHT22;71547;50.146;8.174;2024-02-23T01:01:02;5.60;99.90
1778;DHT22;71547;50.146;8.174;2024-02-23T01:03:29;5.50;99.90
1778;DHT22;71547;50.146;8.174;2024-02-23T01:05:57;5.50;99.90
1778;DHT22;71547;50.146;8.174;2024-02-23T01:08:24;5.40;99.90
1778;DHT22;71547;50.146;8.174;2024-02-23T01:10:51;5.40;99.90
1778;DHT22;71547;50.146;8.174;2024-02-23T01:13:20;5.40;99.90
1778;DHT22;71547;50.146;8.174;2024-02-23T01:15:48;5.40;99.90
1778;DHT22;71547;50.146;8.174;2024-02-23T01:18:15;5.40;99.90
1778;DHT22;71547;50.146;8.174;2024-02-23T01:20:43;5.40;99.90
1778;DHT22;71547;50.146;8.174;2024-02-23T01:23:12;5.40;99.90
1778;DHT22;71547;50.146;8.174;2024-02-23T01:25:40;5.40;99.90
1778;DHT22;71547;50.146;8.174;2024-02-23T01:28:07;5.30;99.90
1778;DHT22;71547;50.146;8.174;2024-02-23T01:30:35;5.20;99.90
1778;DHT22;71547;50.146;8.174;2024-02-23T01:33:03;5.20;99.90
1778;DHT22;71547;50.146;8.174;2024-02-23T01:35:30;5.20;99.90
1778;DHT22;71547;50.146;8.174;2024-02-23T01:37:58;5.20;99.90
1778;DHT22;71547;50.146;8.174;2024-02-23T01:40:25;5.20;99.90
1778;DHT22;71547;50.146;8.174;2024-02-23T01:43:01;5.20;99.90
1778;DHT22;71547;50.146;8.174;2024-02-23T01:45:29;5.10;99.90
1778;DHT22;71547;50.146;8.174;2024-02-23T01:47:58;5.10;99.90
1778;DHT22;71547;50.146;8.174;2024-02-23T01:50:26;5.10;99.90
1778;DHT22;71547;50.146;8.174;2024-02-23T01:52:56;5.10;99.90
1778;DHT22;71547;50.146;8.174;2024-02-23T01:55:23;5.00;99.90
1778;DHT22;71547;50.146;8.174;2024-02-23T01:57:51;5.00;99.90
1778;DHT22;71547;50.146;8.174;2024-02-23T02:00:18;5.00;99.90
1778;DHT22;71547;50.146;8.174;2024-02-23T02:02:48;5.00;99.90
1778;DHT22;71547;50.146;8.174;2024-02-23T02:05:16;4.90;99.90
1778;DHT22;71547;50.146;8.174;2024-02-23T02:07:44;4.90;99.90
1778;DHT22;71547;50.146;8.174;2024-02-23T02:10:12;4.90;99.90
1778;DHT22;71547;50.146;8.174;2024-02-23T02:12:39;4.90;99.90
1778;DHT22;71547;50.146;8.174;2024-02-23T02:15:07;4.90;99.90
1778;DHT22;71547;50.146;8.174;2024-02-23T02:17:35;4.90;99.90
1778;DHT22;71547;50.146;8.174;2024-02-23T02:20:05;4.90;99.90
1778;DHT22;71547;50.146;8.174;2024-02-23T02:22:36;4.90;99.90
1778;DHT22;71547;50.146;8.174;2024-02-23T02:25:03;4.90;99.90
1778;DHT22;71547;50.146;8.174;2024-02-23T02:27:31;4.90;99.90
1778;DHT22;71547;50.146;8.174;2024-02-23T02:29:58;4.90;99.90
1778;DHT22;71547;50.146;8.174;2024-02-23T02:32:25;4.80;99.90
1778;DHT22;71547;50.146;8.174;2024-02-23T02:34:53;4.90;99.90
1778;DHT22;71547;50.146;8.174;2024-02-23T02:37:20;4.80;99.90
1778;DHT22;71547;50.146;8.174;2024-02-23T02:39:49;4.80;99.90
1778;DHT22;71547;50.146;8.174;2024-02-23T02:42:17;4.80;99.90
1778;DHT22;71547;50.146;8.174;2024-02-23T02:44:44;4.80;99.90
1778;DHT22;71547;50.146;8.174;2024-02-23T02:47:14;4.70;99.90
1778;DHT22;71547;50.146;8.174;2024-02-23T02:49:41;4.70;99.90
1778;DHT22;71547;50.146;8.174;2024-02-23T02:52:09;4.70;99.90
1778;DHT22;71547;50.146;8.174;2024-02-23T02:54:36;4.70;99.90
1778;DHT22;71547;50.146;8.174;2024-02-23T02:57:05;4.70;99.90
1778;DHT22;71547;50.146;8.174;2024-02-23T02:59:34;4.60;99.90
1778;DHT22;71547;50.146;8.174;2024-02-23T03:02:02;4.60;99.90
1778;DHT22;71547;50.146;8.174;2024-02-23T03:04:30;4.60;99.90
1778;DHT22;71547;50.146;8.174;2024-02-23T03:06:57;4.60;99.90
1778;DHT22;71547;50.146;8.174;2024-02-23T03:09:24;4.70;99.90
1778;DHT22;71547;50.146;8.174;2024-02-23T03:11:51;4.60;99.90
1778;DHT22;71547;50.146;8.174;2024-02-23T03:14:19;4.60;99.90
1778;DHT22;71547;50.146;8.174;2024-02-23T03:16:49;4.60;99.90
1778;DHT22;71547;50.146;8.174;2024-02-23T03:19:16;4.60;99.90
1778;DHT22;71547;50.146;8.174;2024-02-23T03:21:44;4.60;99.90
1778;DHT22;71547;50.146;8.174;2024-02-23T03:24:11;4.60;99.90
1778;DHT22;71547;50.146;8.174;2024-02-23T03:26:39;4.60;99.90
1778;DHT22;71547;50.146;8.174;2024-02-23T03:29:06;4.60;99.90
1778;DHT22;71547;50.146;8.174;2024-02-23T03:31:34;4.70;99.90
1778;DHT22;71547;50.146;8.174;2024-02-23T03:34:02;4.60;99.90
1778;DHT22;71547;50.146;8.174;2024-02-23T03:36:29;4.60;99.90
1778;DHT22;71547;50.146;8.174;2024-02-23T03:38:56;4.60;99.90
1778;DHT22;71547;50.146;8.174;2024-02-23T03:41:23;4.60;99.90
1778;DHT22;71547;50.146;8.174;2024-02-23T03:43:50;4.60;99.90
1778;DHT22;71547;50.146;8.174;2024-02-23T03:46:17;4.50;99.90
1778;DHT22;71547;50.146;8.174;2024-02-23T03:48:47;4.40;99.90
1778;DHT22;71547;50.146;8.174;2024-02-23T03:51:14;4.40;99.90
1778;DHT22;71547;50.146;8.174;2024-02-23T03:53:42;4.40;99.90
1778;DHT22;71547;50.146;8.174;2024-02-23T03:56:09;4.40;99.90
1778;DHT22;71547;50.146;8.174;2024-02-23T03:58:36;4.50;99.90
1778;DHT22;71547;50.146;8.174;2024-02-23T04:01:03;4.60;99.90
1778;DHT22;71547;50.146;8.174;2024-02-23T04:03:31;4.60;99.90
1778;DHT22;71547;50.146;8.174;2024-02-23T04:05:59;4.60;99.90
1778;DHT22;71547;50.146;8.174;2024-02-23T04:08:26;4.60;99.90
1778;DHT22;71547;50.146;8.174;2024-02-23T04:10:53;4.70;99.90
1778;DHT22;71547;50.146;8.174;2024-02-23T04:13:20;4.60;99.90
1778;DHT22;71547;50.146;8.174;2024-02-23T04:15:48;4.60;99.90
1778;DHT22;71547;50.146;8.174;2024-02-23T04:18:15;4.70;99.90
1778;DHT22;71547;50.146;8.174;2024-02-23T04:20:43;4.70;99.90
1778;DHT22;71547;50.146;8.174;2024-02-23T04:23:12;4.70;99.90
1778;DHT22;71547;50.146;8.174;2024-02-23T04:25:39;4.70;99.90
1778;DHT22;71547;50.146;8.174;2024-02-23T04:28:06;4.80;99.90
1778;DHT22;71547;50.146;8.174;2024-02-23T04:30:33;4.70;99.90
1778;DHT22;71547;50.146;8.174;2024-02-23T04:33:00;4.70;99.90
1778;DHT22;71547;50.146;8.174;2024-02-23T04:35:27;4.70;99.90
1778;DHT22;71547;50.146;8.174;2024-02-23T04:37:54;4.60;99.90
1778;DHT22;71547;50.146;8.174;2024-02-23T04:40:22;4.60;99.90
1778;DHT22;71547;50.146;8.174;2024-02-23T04:42:50;4.60;99.90
1778;DHT22;71547;50.146;8.174;2024-02-23T04:45:17;4.60;99.90
1778;DHT22;71547;50.146;8.174;2024-02-23T04:47:44;4.60;99.90
1778;DHT22;71547;50.146;8.174;2024-02-23T04:50:13;4.60;99.90
1778;DHT22;71547;50.146;8.174;2024-02-23T04:52:41;4.60;99.90
1778;DHT22;71547;50.146;8.174;2024-02-23T04:55:08;4.50;99.90
1778;DHT22;71547;50.146;8.174;2024-02-23T04:57:37;4.60;99.90
1778;DHT22;71547;50.146;8.174;2024-02-23T05:00:06;4.50;99.90
1778;DHT22;71547;50.146;8.174;2024-02-23T05:02:34;4.50;99.90
1778;DHT22;71547;50.146;8.174;2024-02-23T05:05:02;4.50;99.90
1778;DHT22;71547;50.146;8.174;2024-02-23T05:07:31;4.40;99.90
1778;DHT22;71547;50.146;8.174;2024-02-23T05:09:59;4.50;99.90
1778;DHT22;71547;50.146;8.174;2024-02-23T05:12:26;4.50;99.90
1778;DHT22;71547;50.146;8.174;2024-02-23T05:14:55;4.40;99.90
1778;DHT22;71547;50.146;8.174;2024-02-23T05:17:22;4.40;99.90
1778;DHT22;71547;50.146;8.174;2024-02-23T05:19:50;4.40;99.90
1778;DHT22;71547;50.146;8.174;2024-02-23T05:22:17;4.40;99.90
1778;DHT22;71547;50.146;8.174;2024-02-23T05:24:46;4.40;99.90
1778;DHT22;71547;50.146;8.174;2024-02-23T05:27:13;4.40;99.90
1778;DHT22;71547;50.146;8.174;2024-02-23T05:29:40;4.50;99.90
1778;DHT22;71547;50.146;8.174;2024-02-23T05:32:08;4.50;99.90
1778;DHT22;71547;50.146;8.174;2024-02-23T05:34:35;4.40;99.90
1778;DHT22;71547;50.146;8.174;2024-02-23T05:37:02;4.40;99.90
1778;DHT22;71547;50.146;8.174;2024-02-23T05:39:29;4.40;99.90
1778;DHT22;71547;50.146;8.174;2024-02-23T05:41:58;4.40;99.90
1778;DHT22;71547;50.146;8.174;2024-02-23T05:44:26;4.40;99.90
1778;DHT22;71547;50.146;8.174;2024-02-23T05:46:55;4.30;99.90
1778;DHT22;71547;50.146;8.174;2024-02-23T05:49:24;4.20;99.90
1778;DHT22;71547;50.146;8.174;2024-02-23T05:51:52;4.10;99.90
1778;DHT22;71547;50.146;8.174;2024-02-23T05:54:19;4.10;99.90
1778;DHT22;71547;50.146;8.174;2024-02-23T05:56:46;4.10;99.90
1778;DHT22;71547;50.146;8.174;2024-02-23T05:59:13;4.00;99.90
1778;DHT22;71547;50.146;8.174;2024-02-23T06:01:40;4.00;99.90
1778;DHT22;71547;50.146;8.174;2024-02-23T06:04:07;4.00;99.90
1778;DHT22;71547;50.146;8.174;2024-02-23T06:06:36;4.00;99.90
1778;DHT22;71547;50.146;8.174;2024-02-23T06:09:04;4.00;99.90
1778;DHT22;71547;50.146;8.174;2024-02-23T06:11:32;4.00;99.90
1778;DHT22;71547;50.146;8.174;2024-02-23T06:13:59;3.90;99.90
1778;DHT22;71547;50.146;8.174;2024-02-23T06:16:26;3.90;99.90
1778;DHT22;71547;50.146;8.174;2024-02-23T06:18:53;3.90;99.90
1778;DHT22;71547;50.146;8.174;2024-02-23T06:21:20;4.00;99.90
1778;DHT22;71547;50.146;8.174;2024-02-23T06:23:49;4.00;99.90
1778;DHT22;71547;50.146;8.174;2024-02-23T06:26:16;3.90;99.90
1778;DHT22;71547;50.146;8.174;2024-02-23T06:28:45;3.90;99.90
1778;DHT22;71547;50.146;8.174;2024-02-23T06:31:13;3.80;99.90
1778;DHT22;71547;50.146;8.174;2024-02-23T06:33:40;3.80;99.90
1778;DHT22;71547;50.146;8.174;2024-02-23T06:36:09;3.90;99.90
1778;DHT22;71547;50.146;8.174;2024-02-23T06:38:36;3.90;99.90
1778;DHT22;71547;50.146;8.174;2024-02-23T06:41:05;3.90;99.90
1778;DHT22;71547;50.146;8.174;2024-02-23T06:43:33;4.00;99.90
1778;DHT22;71547;50.146;8.174;2024-02-23T06:46:06;4.00;99.90
1778;DHT22;71547;50.146;8.174;2024-02-23T06:48:33;4.00;99.90
1778;DHT22;71547;50.146;8.174;2024-02-23T06:51:01;4.00;99.90
1778;DHT22;71547;50.146;8.174;2024-02-23T06:53:28;4.00;99.90
1778;DHT22;71547;50.146;8.174;2024-02-23T06:55:56;4.00;99.90
1778;DHT22;71547;50.146;8.174;2024-02-23T06:58:24;4.00;99.90
1778;DHT22;71547;50.146;8.174;2024-02-23T07:00:51;3.90;99.90
1778;DHT22;71547;50.146;8.174;2024-02-23T07:03:18;3.90;99.90
1778;DHT22;71547;50.146;8.174;2024-02-23T07:05:45;3.90;99.90
1778;DHT22;71547;50.146;8.174;2024-02-23T07:08:14;3.90;99.90
1778;DHT22;71547;50.146;8.174;2024-02-23T07:10:41;4.00;99.90
1778;DHT22;71547;50.146;8.174;2024-02-23T07:13:08;3.90;99.90
1778;DHT22;71547;50.146;8.174;2024-02-23T07:15:39;3.80;99.90
1778;DHT22;71547;50.146;8.174;2024-02-23T07:18:06;3.80;99.90
1778;DHT22;71547;50.146;8.174;2024-02-23T07:20:35;3.80;99.90
1778;DHT22;71547;50.146;8.174;2024-02-23T07:23:04;3.80;99.90
1778;DHT22;71547;50.146;8.174;2024-02-23T07:25:31;3.80;99.90
1778;DHT22;71547;50.146;8.174;2024-02-23T07:27:58;3.80;99.90
1778;DHT22;71547;50.146;8.174;2024-02-23T07:30:25;3.90;99.90
1778;DHT22;71547;50.146;8.174;2024-02-23T07:32:54;3.90;99.90
1778;DHT22;71547;50.146;8.174;2024-02-23T07:35:21;3.90;99.90
1778;DHT22;71547;50.146;8.174;2024-02-23T07:37:48;3.90;99.90
1778;DHT22;71547;50.146;8.174;2024-02-23T07:40:15;4.00;99.90
1778;DHT22;71547;50.146;8.174;2024-02-23T07:42:47;4.00;99.90
1778;DHT22;71547;50.146;8.174;2024-02-23T07:45:15;4.10;99.90
1778;DHT22;71547;50.146;8.174;2024-02-23T07:47:42;4.10;99.90
1778;DHT22;71547;50.146;8.174;2024-02-23T07:50:11;4.30;99.90
1778;DHT22;71547;50.146;8.174;2024-02-23T07:52:39;4.40;99.90
1778;DHT22;71547;50.146;8.174;2024-02-23T07:55:07;4.30;99.90
1778;DHT22;71547;50.146;8.174;2024-02-23T07:57:35;4.30;99.90
1778;DHT22;71547;50.146;8.174;2024-02-23T08:00:04;4.40;99.90
1778;DHT22;71547;50.146;8.174;2024-02-23T08:02:34;4.50;99.90
1778;DHT22;71547;50.146;8.174;2024-02-23T08:05:01;4.50;99.90
1778;DHT22;71547;50.146;8.174;2024-02-23T08:07:30;4.50;99.90
1778;DHT22;71547;50.146;8.174;2024-02-23T08:09:57;4.50;99.90
1778;DHT22;71547;50.146;8.174;2024-02-23T08:12:25;4.50;99.90
1778;DHT22;71547;50.146;8.174;2024-02-23T08:14:52;4.60;99.90
1778;DHT22;71547;50.146;8.174;2024-02-23T08:17:20;4.60;99.90
1778;DHT22;71547;50.146;8.174;2024-02-23T08:19:47;4.60;99.90
1778;DHT22;71547;50.146;8.174;2024-02-23T08:22:14;4.60;99.90
1778;DHT22;71547;50.146;8.174;2024-02-23T08:24:43;4.50;99.90
1778;DHT22;71547;50.146;8.174;2024-02-23T08:27:10;4.50;99.90
1778;DHT22;71547;50.146;8.174;2024-02-23T08:29:38;4.50;99.90
1778;DHT22;71547;50.146;8.174;2024-02-23T08:32:05;4.50;99.90
1778;DHT22;71547;50.146;8.174;2024-02-23T08:34:33;4.60;99.90
1778;DHT22;71547;50.146;8.174;2024-02-23T08:37:01;4.60;99.90
1778;DHT22;71547;50.146;8.174;2024-02-23T08:39:28;4.50;99.90
1778;DHT22;71547;50.146;8.174;2024-02-23T08:41:56;4.60;99.90
1778;DHT22;71547;50.146;8.174;2024-02-23T08:44:24;4.60;99.90
1778;DHT22;71547;50.146;8.174;2024-02-23T08:46:51;4.60;99.90
1778;DHT22;71547;50.146;8.174;2024-02-23T08:49:18;4.60;99.90
1778;DHT22;71547;50.146;8.174;2024-02-23T08:51:45;4.70;99.90
1778;DHT22;71547;50.146;8.174;2024-02-23T08:54:13;4.60;99.90
1778;DHT22;71547;50.146;8.174;2024-02-23T08:56:40;4.60;99.90
1778;DHT22;71547;50.146;8.174;2024-02-23T08:59:10;4.60;99.90
1778;DHT22;71547;50.146;8.174;2024-02-23T09:01:37;4.70;99.90
1778;DHT22;71547;50.146;8.174;2024-02-23T09:04:05;4.80;99.90
1778;DHT22;71547;50.146;8.174;2024-02-23T09:06:32;4.80;99.90
1778;DHT22;71547;50.146;8.174;2024-02-23T09:09:05;4.80;99.90
1778;DHT22;71547;50.146;8.174;2024-02-23T09:11:32;4.90;99.90
1778;DHT22;71547;50.146;8.174;2024-02-23T09:14:00;4.80;99.90
1778;DHT22;71547;50.146;8.174;2024-02-23T09:16:29;4.80;99.90
1778;DHT22;71547;50.146;8.174;2024-02-23T09:18:56;4.90;99.90
1778;DHT22;71547;50.146;8.174;2024-02-23T09:21:23;4.90;99.90
1778;DHT22;71547;50.146;8.174;2024-02-23T09:23:51;4.90;99.90
1778;DHT22;71547;50.146;8.174;2024-02-23T09:26:18;4.90;99.90
1778;DHT22;71547;50.146;8.174;2024-02-23T09:28:46;4.90;99.90
1778;DHT22;71547;50.146;8.174;2024-02-23T09:31:13;4.90;99.90
1778;DHT22;71547;50.146;8.174;2024-02-23T09:33:42;5.00;99.90
1778;DHT22;71547;50.146;8.174;2024-02-23T09:36:10;5.00;99.90
1778;DHT22;71547;50.146;8.174;2024-02-23T09:38:37;5.10;99.90
1778;DHT22;71547;50.146;8.174;2024-02-23T09:41:05;5.10;99.90
1778;DHT22;71547;50.146;8.174;2024-02-23T09:43:42;5.20;99.90
1778;DHT22;71547;50.146;8.174;2024-02-23T09:46:11;5.10;99.90
1778;DHT22;71547;50.146;8.174;2024-02-23T09:48:39;5.10;99.90
1778;DHT22;71547;50.146;8.174;2024-02-23T09:51:10;5.20;99.90
1778;DHT22;71547;50.146;8.174;2024-02-23T09:53:39;5.20;99.90
1778;DHT22;71547;50.146;8.174;2024-02-23T09:56:06;5.20;99.90
1778;DHT22;71547;50.146;8.174;2024-02-23T09:58:36;5.20;99.90
1778;DHT22;71547;50.146;8.174;2024-02-23T10:01:04;5.20;99.90
1778;DHT22;71547;50.146;8.174;2024-02-23T10:03:31;5.30;99.90
1778;DHT22;71547;50.146;8.174;2024-02-23T10:05:59;5.30;99.90
1778;DHT22;71547;50.146;8.174;2024-02-23T10:08:29;5.30;99.90
1778;DHT22;71547;50.146;8.174;2024-02-23T10:10:56;5.40;99.90
1778;DHT22;71547;50.146;8.174;2024-02-23T10:13:24;5.40;99.90
1778;DHT22;71547;50.146;8.174;2024-02-23T10:15:51;5.40;99.90
1778;DHT22;71547;50.146;8.174;2024-02-23T10:18:39;5.50;99.90
1778;DHT22;71547;50.146;8.174;2024-02-23T10:21:06;5.60;99.90
1778;DHT22;71547;50.146;8.174;2024-02-23T10:23:34;5.50;99.90
1778;DHT22;71547;50.146;8.174;2024-02-23T10:26:04;5.50;99.90
1778;DHT22;71547;50.146;8.174;2024-02-23T10:28:32;5.50;99.90
1778;DHT22;71547;50.146;8.174;2024-02-23T10:31:00;5.60;99.90
1778;DHT22;71547;50.146;8.174;2024-02-23T10:33:28;5.70;99.90
1778;DHT22;71547;50.146;8.174;2024-02-23T10:35:58;5.80;99.90
1778;DHT22;71547;50.146;8.174;2024-02-23T10:38:29;5.80;99.90
1778;DHT22;71547;50.146;8.174;2024-02-23T10:41:03;5.80;99.90
1778;DHT22;71547;50.146;8.174;2024-02-23T10:43:35;5.90;99.90
1778;DHT22;71547;50.146;8.174;2024-02-23T10:46:06;6.00;99.90
1778;DHT22;71547;50.146;8.174;2024-02-23T10:48:36;6.00;99.90
1778;DHT22;71547;50.146;8.174;2024-02-23T10:51:05;6.10;99.90
1778;DHT22;71547;50.146;8.174;2024-02-23T10:53:36;6.20;99.90
1778;DHT22;71547;50.146;8.174;2024-02-23T10:56:04;6.20;99.90
1778;DHT22;71547;50.146;8.174;2024-02-23T10:58:32;6.30;99.90
1778;DHT22;71547;50.146;8.174;2024-02-23T11:01:00;6.20;99.90
1778;DHT22;71547;50.146;8.174;2024-02-23T11:03:30;6.20;99.90
1778;DHT22;71547;50.146;8.174;2024-02-23T11:05:59;6.30;99.90
1778;DHT22;71547;50.146;8.174;2024-02-23T11:08:28;6.50;99.90
1778;DHT22;71547;50.146;8.174;2024-02-23T11:10:56;6.50;99.90
1778;DHT22;71547;50.146;8.174;2024-02-23T11:13:34;6.50;99.90
1778;DHT22;71547;50.146;8.174;2024-02-23T11:16:22;6.50;99.90
1778;DHT22;71547;50.146;8.174;2024-02-23T11:19:03;6.60;99.90
1778;DHT22;71547;50.146;8.174;2024-02-23T11:21:34;6.80;99.90
1778;DHT22;71547;50.146;8.174;2024-02-23T11:24:04;6.80;99.90
1778;DHT22;71547;50.146;8.174;2024-02-23T11:26:37;6.80;99.90
1778;DHT22;71547;50.146;8.174;2024-02-23T11:29:10;6.70;99.90
1778;DHT22;71547;50.146;8.174;2024-02-23T11:31:44;6.70;99.90
1778;DHT22;71547;50.146;8.174;2024-02-23T11:34:12;6.70;99.90
1778;DHT22;71547;50.146;8.174;2024-02-23T11:36:40;6.70;99.90
1778;DHT22;71547;50.146;8.174;2024-02-23T11:39:10;6.60;99.90
1778;DHT22;71547;50.146;8.174;2024-02-23T11:41:40;6.60;99.90
1778;DHT22;71547;50.146;8.174;2024-02-23T11:44:08;6.70;99.90
1778;DHT22;71547;50.146;8.174;2024-02-23T11:46:36;6.70;99.90
1778;DHT22;71547;50.146;8.174;2024-02-23T11:49:03;6.80;99.90
1778;DHT22;71547;50.146;8.174;2024-02-23T11:51:30;6.90;99.90
1778;DHT22;71547;50.146;8.174;2024-02-23T11:53:57;6.80;99.90
1778;DHT22;71547;50.146;8.174;2024-02-23T11:56:27;6.80;99.90
1778;DHT22;71547;50.146;8.174;2024-02-23T11:58:58;6.90;99.90
1778;DHT22;71547;50.146;8.174;2024-02-23T12:01:29;7.00;99.90
1778;DHT22;71547;50.146;8.174;2024-02-23T12:03:57;7.10;99.90
1778;DHT22;71547;50.146;8.174;2024-02-23T12:06:25;7.10;99.90
1778;DHT22;71547;50.146;8.174;2024-02-23T12:08:56;7.30;99.90
1778;DHT22;71547;50.146;8.174;2024-02-23T12:11:23;7.40;99.90
1778;DHT22;71547;50.146;8.174;2024-02-23T12:13:52;7.50;99.90
1778;DHT22;71547;50.146;8.174;2024-02-23T12:16:22;7.50;99.90
1778;DHT22;71547;50.146;8.174;2024-02-23T12:18:53;7.40;99.90
1778;DHT22;71547;50.146;8.174;2024-02-23T12:21:23;7.40;99.90
1778;DHT22;71547;50.146;8.174;2024-02-23T12:23:53;7.40;99.90
1778;DHT22;71547;50.146;8.174;2024-02-23T12:26:20;7.40;99.90
1778;DHT22;71547;50.146;8.174;2024-02-23T12:28:48;7.50;99.90
1778;DHT22;71547;50.146;8.174;2024-02-23T12:31:16;7.40;99.90
1778;DHT22;71547;50.146;8.174;2024-02-23T12:33:53;7.40;99.90
1778;DHT22;71547;50.146;8.174;2024-02-23T12:36:21;7.30;99.90
1778;DHT22;71547;50.146;8.174;2024-02-23T12:38:50;7.10;99.90
1778;DHT22;71547;50.146;8.174;2024-02-23T12:41:17;7.00;99.90
1778;DHT22;71547;50.146;8.174;2024-02-23T12:43:44;7.00;99.90
1778;DHT22;71547;50.146;8.174;2024-02-23T12:46:14;7.10;99.90
1778;DHT22;71547;50.146;8.174;2024-02-23T12:48:43;7.00;99.90
1778;DHT22;71547;50.146;8.174;2024-02-23T12:51:10;7.00;99.90
1778;DHT22;71547;50.146;8.174;2024-02-23T12:53:40;7.00;99.90
1778;DHT22;71547;50.146;8.174;2024-02-23T12:56:09;7.00;99.90
1778;DHT22;71547;50.146;8.174;2024-02-23T12:58:41;6.90;99.90
1778;DHT22;71547;50.146;8.174;2024-02-23T13:01:10;6.90;99.90
1778;DHT22;71547;50.146;8.174;2024-02-23T13:03:38;7.00;99.90
1778;DHT22;71547;50.146;8.174;2024-02-23T13:06:10;7.10;99.90
1778;DHT22;71547;50.146;8.174;2024-02-23T13:08:37;7.10;99.90
1778;DHT22;71547;50.146;8.174;2024-02-23T13:11:06;7.10;99.90
1778;DHT22;71547;50.146;8.174;2024-02-23T13:13:34;7.10;99.90
1778;DHT22;71547;50.146;8.174;2024-02-23T13:16:01;7.10;99.90
1778;DHT22;71547;50.146;8.174;2024-02-23T13:18:28;7.10;99.90
1778;DHT22;71547;50.146;8.174;2024-02-23T13:20:56;7.10;99.90
1778;DHT22;71547;50.146;8.174;2024-02-23T13:23:25;7.20;99.90
1778;DHT22;71547;50.146;8.174;2024-02-23T13:25:52;7.20;99.90
1778;DHT22;71547;50.146;8.174;2024-02-23T13:28:19;7.30;99.90
1778;DHT22;71547;50.146;8.174;2024-02-23T13:30:46;7.40;99.90
1778;DHT22;71547;50.146;8.174;2024-02-23T13:33:13;7.50;99.90
1778;DHT22;71547;50.146;8.174;2024-02-23T13:35:41;7.50;99.90
1778;DHT22;71547;50.146;8.174;2024-02-23T13:38:09;7.40;99.90
1778;DHT22;71547;50.146;8.174;2024-02-23T13:40:38;7.40;99.90
1778;DHT22;71547;50.146;8.174;2024-02-23T13:43:05;7.40;99.90
1778;DHT22;71547;50.146;8.174;2024-02-23T13:45:33;7.40;99.90
1778;DHT22;71547;50.146;8.174;2024-02-23T13:48:01;7.50;99.90
1778;DHT22;71547;50.146;8.174;2024-02-23T13:50:30;7.40;99.90
1778;DHT22;71547;50.146;8.174;2024-02-23T13:52:57;7.40;99.90
1778;DHT22;71547;50.146;8.174;2024-02-23T13:55:25;7.30;99.90
1778;DHT22;71547;50.146;8.174;2024-02-23T13:57:53;7.40;99.90
1778;DHT22;71547;50.146;8.174;2024-02-23T14:00:20;7.30;99.90
1778;DHT22;71547;50.146;8.174;2024-02-23T14:02:49;7.30;99.90
1778;DHT22;71547;50.146;8.174;2024-02-23T14:05:17;7.40;99.90
1778;DHT22;71547;50.146;8.174;2024-02-23T14:07:48;7.40;99.90
1778;DHT22;71547;50.146;8.174;2024-02-23T14:10:15;7.50;99.90
1778;DHT22;71547;50.146;8.174;2024-02-23T14:12:44;7.50;99.90
1778;DHT22;71547;50.146;8.174;2024-02-23T14:15:15;7.50;99.90
1778;DHT22;71547;50.146;8.174;2024-02-23T14:17:43;7.60;99.90
1778;DHT22;71547;50.146;8.174;2024-02-23T14:20:10;7.60;99.90
1778;DHT22;71547;50.146;8.174;2024-02-23T14:22:39;7.60;99.90
1778;DHT22;71547;50.146;8.174;2024-02-23T14:25:06;7.70;99.90
1778;DHT22;71547;50.146;8.174;2024-02-23T14:27:34;7.60;99.90
1778;DHT22;71547;50.146;8.174;2024-02-23T14:30:02;7.70;99.90
1778;DHT22;71547;50.146;8.174;2024-02-23T14:32:31;7.80;99.90
1778;DHT22;71547;50.146;8.174;2024-02-23T14:34:58;8.00;99.90
1778;DHT22;71547;50.146;8.174;2024-02-23T14:37:28;8.00;99.90
1778;DHT22;71547;50.146;8.174;2024-02-23T14:39:55;8.00;99.90
1778;DHT22;71547;50.146;8.174;2024-02-23T14:42:22;8.00;99.90
1778;DHT22;71547;50.146;8.174;2024-02-23T14:44:49;7.90;99.90
1778;DHT22;71547;50.146;8.174;2024-02-23T14:47:16;7.80;99.90
1778;DHT22;71547;50.146;8.174;2024-02-23T14:49:49;7.80;99.90
1778;DHT22;71547;50.146;8.174;2024-02-23T14:52:16;7.70;99.90
1778;DHT22;71547;50.146;8.174;2024-02-23T14:54:43;7.60;99.90
1778;DHT22;71547;50.146;8.174;2024-02-23T14:57:11;7.60;99.90
1778;DHT22;71547;50.146;8.174;2024-02-23T14:59:38;7.60;99.90
1778;DHT22;71547;50.146;8.174;2024-02-23T15:02:19;7.60;99.90
1778;DHT22;71547;50.146;8.174;2024-02-23T15:04:48;7.60;99.90
1778;DHT22;71547;50.146;8.174;2024-02-23T15:07:16;7.70;99.90
1778;DHT22;71547;50.146;8.174;2024-02-23T15:09:43;7.70;99.90
1778;DHT22;71547;50.146;8.174;2024-02-23T15:12:11;7.60;99.90
1778;DHT22;71547;50.146;8.174;2024-02-23T15:14:38;7.50;99.90
1778;DHT22;71547;50.146;8.174;2024-02-23T15:17:09;7.50;99.90
1778;DHT22;71547;50.146;8.174;2024-02-23T15:19:36;7.50;99.90
1778;DHT22;71547;50.146;8.174;2024-02-23T15:22:04;7.50;99.90
1778;DHT22;71547;50.146;8.174;2024-02-23T15:24:34;7.80;99.90
1778;DHT22;71547;50.146;8.174;2024-02-23T15:27:02;8.10;99.90
1778;DHT22;71547;50.146;8.174;2024-02-23T15:29:29;8.30;99.90
1778;DHT22;71547;50.146;8.174;2024-02-23T15:31:56;8.20;99.90
1778;DHT22;71547;50.146;8.174;2024-02-23T15:34:23;7.90;99.90
1778;DHT22;71547;50.146;8.174;2024-02-23T15:36:50;7.80;99.90
1778;DHT22;71547;50.146;8.174;2024-02-23T15:39:19;7.80;99.90
1778;DHT22;71547;50.146;8.174;2024-02-23T15:41:46;7.70;99.90
1778;DHT22;71547;50.146;8.174;2024-02-23T15:44:13;7.60;99.90
1778;DHT22;71547;50.146;8.174;2024-02-23T15:46:40;7.60;99.90
1778;DHT22;71547;50.146;8.174;2024-02-23T15:49:08;8.40;99.90
1778;DHT22;71547;50.146;8.174;2024-02-23T15:51:55;10.00;99.70
1778;DHT22;71547;50.146;8.174;2024-02-23T15:54:28;10.90;97.30
1778;DHT22;71547;50.146;8.174;2024-02-23T15:56:57;10.60;97.00
1778;DHT22;71547;50.146;8.174;2024-02-23T15:59:24;10.10;97.10
1778;DHT22;71547;50.146;8.174;2024-02-23T16:01:53;9.60;98.10
1778;DHT22;71547;50.146;8.174;2024-02-23T16:04:21;9.40;98.70
1778;DHT22;71547;50.146;8.174;2024-02-23T16:06:49;8.80;99.10
1778;DHT22;71547;50.146;8.174;2024-02-23T16:09:16;8.40;99.60